sensor_id;sensor_type;location;lat;lon;timestamp;pressure;altitude;pressure_sealevel;temperature;humidity
17781;BME280;8498;52.516;13.790;2023-04-06T00:03:51;101633.78;;;4.82;78.26
17781;BME280;8498;52.516;13.790;2023-04-06T00:09:13;101629.41;;;4.81;78.31
17781;BME280;8498;52.516;13.790;2023-04-06T00:14:36;101625.19;;;4.75;78.73
17781;BME280;8498;52.516;13.790;2023-04-06T00:19:58;101624.59;;;4.66;79.23
17781;BME280;8498;52.516;13.790;2023-04-06T00:25:20;101625.28;;;4.72;78.77
17781;BME280;8498;52.516;13.790;2023-04-06T00:30:43;101623.56;;;4.71;78.65
17781;BME280;8498;52.516;13.790;2023-04-06T00:36:05;101619.06;;;4.75;78.06
17781;BME280;8498;52.516;13.790;2023-04-06T00:41:28;101618.16;;;4.76;77.77
17781;BME280;8498;52.516;13.790;2023-04-06T00:46:50;101613.03;;;4.71;77.98
17781;BME280;8498;52.516;13.790;2023-04-06T00:52:13;101620.91;;;4.71;78.02
17781;BME280;8498;52.516;13.790;2023-04-06T00:57:37;101622.00;;;4.64;79.06
17781;BME280;8498;52.516;13.790;2023-04-06T01:03:00;101608.03;;;4.62;78.86
17781;BME280;8498;52.516;13.790;2023-04-06T01:08:31;101614.44;;;4.54;79.61
17781;BME280;8498;52.516;13.790;2023-04-06T01:14:07;101596.97;;;4.50;79.34
17781;BME280;8498;52.516;13.790;2023-04-06T01:19:59;101603.28;;;4.44;79.59
17781;BME280;8498;52.516;13.790;2023-04-06T01:25:25;101598.00;;;4.46;79.48
17781;BME280;8498;52.516;13.790;2023-04-06T01:30:58;101610.06;;;4.53;78.94
17781;BME280;8498;52.516;13.790;2023-04-06T01:36:44;101602.25;;;4.50;79.03
17781;BME280;8498;52.516;13.790;2023-04-06T01:42:24;101605.78;;;4.49;78.53
17781;BME280;8498;52.516;13.790;2023-04-06T01:47:48;101612.03;;;4.46;78.82
17781;BME280;8498;52.516;13.790;2023-04-06T01:53:10;101606.09;;;4.38;79.57
17781;BME280;8498;52.516;13.790;2023-04-06T01:58:35;101615.88;;;4.33;80.00
17781;BME280;8498;52.516;13.790;2023-04-06T02:03:58;101614.19;;;4.30;80.21
17781;BME280;8498;52.516;13.790;2023-04-06T02:09:21;101607.94;;;4.34;79.89
17781;BME280;8498;52.516;13.790;2023-04-06T02:14:43;101607.94;;;4.34;79.62
17781;BME280;8498;52.516;13.790;2023-04-06T02:20:07;101612.50;;;4.28;80.49
17781;BME280;8498;52.516;13.790;2023-04-06T02:25:30;101609.16;;;4.23;80.33
17781;BME280;8498;52.516;13.790;2023-04-06T02:30:55;101607.41;;;4.22;80.29
17781;BME280;8498;52.516;13.790;2023-04-06T02:36:21;101606.38;;;4.27;79.79
17781;BME280;8498;52.516;13.790;2023-04-06T02:41:43;101604.72;;;4.25;79.40
17781;BME280;8498;52.516;13.790;2023-04-06T02:47:09;101612.75;;;4.19;79.72
17781;BME280;8498;52.516;13.790;2023-04-06T02:52:33;101605.00;;;4.14;79.66
17781;BME280;8498;52.516;13.790;2023-04-06T02:57:56;101606.22;;;4.01;80.28
17781;BME280;8498;52.516;13.790;2023-04-06T03:03:23;101607.50;;;3.85;80.87
17781;BME280;8498;52.516;13.790;2023-04-06T03:08:46;101611.25;;;3.76;81.33
17781;BME280;8498;52.516;13.790;2023-04-06T03:14:09;101611.66;;;3.59;81.43
17781;BME280;8498;52.516;13.790;2023-04-06T03:19:32;101612.06;;;3.43;81.61
17781;BME280;8498;52.516;13.790;2023-04-06T03:24:56;101615.09;;;3.26;82.54
17781;BME280;8498;52.516;13.790;2023-04-06T03:30:20;101617.09;;;3.15;82.99
17781;BME280;8498;52.516;13.790;2023-04-06T03:35:42;101620.94;;;3.00;82.98
17781;BME280;8498;52.516;13.790;2023-04-06T03:41:05;101629.03;;;2.89;83.09
17781;BME280;8498;52.516;13.790;2023-04-06T03:46:27;101631.03;;;2.78;83.33
17781;BME280;8498;52.516;13.790;2023-04-06T03:51:52;101635.59;;;2.69;83.72
17781;BME280;8498;52.516;13.790;2023-04-06T03:57:15;101633.22;;;2.56;83.70
17781;BME280;8498;52.516;13.790;2023-04-06T04:02:38;101642.06;;;2.51;83.63
17781;BME280;8498;52.516;13.790;2023-04-06T04:08:00;101640.47;;;2.44;83.20
17781;BME280;8498;52.516;13.790;2023-04-06T04:13:22;101641.50;;;2.35;83.37
17781;BME280;8498;52.516;13.790;2023-04-06T04:18:46;101655.69;;;2.25;83.99
17781;BME280;8498;52.516;13.790;2023-04-06T04:24:11;101652.38;;;2.14;84.15
17781;BME280;8498;52.516;13.790;2023-04-06T04:29:34;101656.88;;;2.07;84.50
17781;BME280;8498;52.516;13.790;2023-04-06T04:35:01;101659.50;;;2.07;84.21
17781;BME280;8498;52.516;13.790;2023-04-06T04:40:31;101654.25;;;2.07;83.66
17781;BME280;8498;52.516;13.790;2023-04-06T04:46:04;101654.34;;;2.03;83.78
17781;BME280;8498;52.516;13.790;2023-04-06T04:51:32;101655.22;;;2.02;84.23
17781;BME280;8498;52.516;13.790;2023-04-06T04:57:07;101654.50;;;1.92;84.79
17781;BME280;8498;52.516;13.790;2023-04-06T05:02:35;101660.75;;;1.85;85.31
17781;BME280;8498;52.516;13.790;2023-04-06T05:08:07;101665.84;;;1.94;85.30
17781;BME280;8498;52.516;13.790;2023-04-06T05:13:36;101660.69;;;1.88;85.46
17781;BME280;8498;52.516;13.790;2023-04-06T05:19:05;101666.72;;;1.95;84.13
17781;BME280;8498;52.516;13.790;2023-04-06T05:24:34;101664.16;;;1.90;84.55
17781;BME280;8498;52.516;13.790;2023-04-06T05:29:59;101671.03;;;1.97;84.53
17781;BME280;8498;52.516;13.790;2023-04-06T05:35:25;101668.44;;;1.96;84.95
17781;BME280;8498;52.516;13.790;2023-04-06T05:40:52;101669.16;;;2.05;85.45
17781;BME280;8498;52.516;13.790;2023-04-06T05:46:18;101674.97;;;2.21;84.77
17781;BME280;8498;52.516;13.790;2023-04-06T05:51:42;101684.41;;;2.30;84.91
17781;BME280;8498;52.516;13.790;2023-04-06T05:57:05;101681.56;;;2.42;85.21
17781;BME280;8498;52.516;13.790;2023-04-06T06:02:30;101682.09;;;2.61;84.99
17781;BME280;8498;52.516;13.790;2023-04-06T06:07:52;101683.38;;;2.84;84.51
17781;BME280;8498;52.516;13.790;2023-04-06T06:13:16;101680.25;;;3.09;84.00
17781;BME280;8498;52.516;13.790;2023-04-06T06:18:38;101682.16;;;3.42;83.52
17781;BME280;8498;52.516;13.790;2023-04-06T06:24:02;101685.66;;;3.78;82.62
17781;BME280;8498;52.516;13.790;2023-04-06T06:29:25;101674.25;;;4.15;80.67
17781;BME280;8498;52.516;13.790;2023-04-06T06:34:47;101686.53;;;4.47;78.95
17781;BME280;8498;52.516;13.790;2023-04-06T06:40:11;101681.59;;;4.98;78.88
17781;BME280;8498;52.516;13.790;2023-04-06T06:45:37;101680.41;;;5.08;76.12
17781;BME280;8498;52.516;13.790;2023-04-06T06:51:00;101692.09;;;5.29;73.86
17781;BME280;8498;52.516;13.790;2023-04-06T06:56:22;101691.06;;;5.33;73.43
17781;BME280;8498;52.516;13.790;2023-04-06T07:01:46;101695.44;;;5.34;74.94
17781;BME280;8498;52.516;13.790;2023-04-06T07:07:08;101687.25;;;5.43;75.17
17781;BME280;8498;52.516;13.790;2023-04-06T07:12:31;101686.97;;;5.52;74.69
17781;BME280;8498;52.516;13.790;2023-04-06T07:17:56;101683.94;;;5.64;72.83
17781;BME280;8498;52.516;13.790;2023-04-06T07:23:19;101683.72;;;6.00;69.81
17781;BME280;8498;52.516;13.790;2023-04-06T07:28:42;101678.50;;;6.23;68.95
17781;BME280;8498;52.516;13.790;2023-04-06T07:34:07;101683.78;;;6.48;68.24
17781;BME280;8498;52.516;13.790;2023-04-06T07:39:31;101679.44;;;6.72;64.61
17781;BME280;8498;52.516;13.790;2023-04-06T07:44:54;101682.97;;;6.95;60.90
17781;BME280;8498;52.516;13.790;2023-04-06T07:50:17;101680.66;;;7.10;61.23
17781;BME280;8498;52.516;13.790;2023-04-06T07:55:40;101673.56;;;7.33;58.86
17781;BME280;8498;52.516;13.790;2023-04-06T08:01:03;101681.38;;;7.58;55.66
17781;BME280;8498;52.516;13.790;2023-04-06T08:06:26;101685.47;;;7.67;53.52
17781;BME280;8498;52.516;13.790;2023-04-06T08:11:51;101685.75;;;8.23;52.48
17781;BME280;8498;52.516;13.790;2023-04-06T08:17:13;101688.75;;;8.16;51.47
17781;BME280;8498;52.516;13.790;2023-04-06T08:22:41;101682.84;;;8.09;50.94
17781;BME280;8498;52.516;13.790;2023-04-06T08:28:03;101677.28;;;8.37;51.04
17781;BME280;8498;52.516;13.790;2023-04-06T08:33:26;101680.44;;;8.45;51.96
17781;BME280;8498;52.516;13.790;2023-04-06T08:38:48;101676.00;;;9.24;51.88
17781;BME280;8498;52.516;13.790;2023-04-06T08:44:11;101674.66;;;9.34;46.91
17781;BME280;8498;52.516;13.790;2023-04-06T08:49:37;101677.28;;;9.15;48.21
17781;BME280;8498;52.516;13.790;2023-04-06T08:55:00;101672.56;;;9.22;47.54
17781;BME280;8498;52.516;13.790;2023-04-06T09:00:25;101662.56;;;9.45;46.15
17781;BME280;8498;52.516;13.790;2023-04-06T09:05:48;101667.22;;;9.59;46.32
17781;BME280;8498;52.516;13.790;2023-04-06T09:11:10;101666.56;;;9.73;46.23
17781;BME280;8498;52.516;13.790;2023-04-06T09:16:39;101662.13;;;9.90;46.44
17781;BME280;8498;52.516;13.790;2023-04-06T09:22:04;101661.78;;;10.50;46.16
17781;BME280;8498;52.516;13.790;2023-04-06T09:27:32;101651.06;;;11.33;45.83
17781;BME280;8498;52.516;13.790;2023-04-06T09:32:56;101652.09;;;10.49;42.90
17781;BME280;8498;52.516;13.790;2023-04-06T09:38:19;101653.09;;;10.12;44.68
17781;BME280;8498;52.516;13.790;2023-04-06T09:43:43;101636.97;;;11.15;43.43
17781;BME280;8498;52.516;13.790;2023-04-06T09:49:07;101640.56;;;10.98;42.21
17781;BME280;8498;52.516;13.790;2023-04-06T09:54:34;101644.31;;;10.94;42.48
17781;BME280;8498;52.516;13.790;2023-04-06T10:05:46;101633.66;;;11.27;42.93
17781;BME280;8498;52.516;13.790;2023-04-06T10:11:09;101638.38;;;11.38;43.57
17781;BME280;8498;52.516;13.790;2023-04-06T10:16:33;101647.97;;;11.56;42.05
17781;BME280;8498;52.516;13.790;2023-04-06T10:21:58;101638.47;;;11.21;42.95
17781;BME280;8498;52.516;13.790;2023-04-06T10:27:30;101631.91;;;10.95;43.40
17781;BME280;8498;52.516;13.790;2023-04-06T10:32:52;101630.44;;;11.05;43.17
17781;BME280;8498;52.516;13.790;2023-04-06T10:38:15;101637.25;;;11.11;43.21
17781;BME280;8498;52.516;13.790;2023-04-06T10:43:42;101622.47;;;11.05;43.32
17781;BME280;8498;52.516;13.790;2023-04-06T10:49:11;101624.13;;;11.08;43.93
17781;BME280;8498;52.516;13.790;2023-04-06T10:54:41;101623.56;;;11.01;43.36
17781;BME280;8498;52.516;13.790;2023-04-06T11:00:05;101626.69;;;11.09;42.68
17781;BME280;8498;52.516;13.790;2023-04-06T11:05:28;101616.56;;;11.31;41.43
17781;BME280;8498;52.516;13.790;2023-04-06T11:10:50;101611.66;;;11.55;42.08
17781;BME280;8498;52.516;13.790;2023-04-06T11:21:47;101605.22;;;11.59;42.23
17781;BME280;8498;52.516;13.790;2023-04-06T11:27:10;101604.34;;;11.59;41.72
17781;BME280;8498;52.516;13.790;2023-04-06T11:32:43;101597.72;;;11.82;41.82
17781;BME280;8498;52.516;13.790;2023-04-06T11:38:06;101592.81;;;12.34;41.50
17781;BME280;8498;52.516;13.790;2023-04-06T11:43:31;101591.28;;;13.42;39.10
17781;BME280;8498;52.516;13.790;2023-04-06T11:48:58;101589.94;;;13.08;39.59
17781;BME280;8498;52.516;13.790;2023-04-06T11:54:34;101593.63;;;13.73;38.93
17781;BME280;8498;52.516;13.790;2023-04-06T11:59:57;101576.69;;;14.39;35.25
17781;BME280;8498;52.516;13.790;2023-04-06T12:05:19;101573.91;;;14.41;36.67
17781;BME280;8498;52.516;13.790;2023-04-06T12:10:42;101573.41;;;15.93;32.29
17781;BME280;8498;52.516;13.790;2023-04-06T12:16:04;101571.09;;;15.88;32.17
17781;BME280;8498;52.516;13.790;2023-04-06T12:21:27;101562.03;;;16.24;31.74
17781;BME280;8498;52.516;13.790;2023-04-06T12:26:50;101564.16;;;16.99;31.65
17781;BME280;8498;52.516;13.790;2023-04-06T12:32:24;101558.56;;;16.91;31.00
17781;BME280;8498;52.516;13.790;2023-04-06T12:37:46;101562.47;;;16.64;30.85
17781;BME280;8498;52.516;13.790;2023-04-06T12:43:09;101547.94;;;16.56;32.19
17781;BME280;8498;52.516;13.790;2023-04-06T12:48:32;101550.00;;;16.30;31.82
17781;BME280;8498;52.516;13.790;2023-04-06T12:53:54;101548.06;;;16.76;31.58
17781;BME280;8498;52.516;13.790;2023-04-06T12:59:17;101547.25;;;17.30;30.19
17781;BME280;8498;52.516;13.790;2023-04-06T13:04:40;101546.47;;;17.39;29.98
17781;BME280;8498;52.516;13.790;2023-04-06T13:10:02;101533.56;;;16.90;30.40
17781;BME280;8498;52.516;13.790;2023-04-06T13:15:24;101537.69;;;16.72;30.51
17781;BME280;8498;52.516;13.790;2023-04-06T13:20:48;101528.06;;;16.80;30.93
17781;BME280;8498;52.516;13.790;2023-04-06T13:26:10;101524.84;;;15.97;30.66
17781;BME280;8498;52.516;13.790;2023-04-06T13:31:33;101513.56;;;15.22;32.40
17781;BME280;8498;52.516;13.790;2023-04-06T13:36:56;101519.91;;;14.85;32.90
17781;BME280;8498;52.516;13.790;2023-04-06T13:42:18;101520.38;;;14.03;33.21
17781;BME280;8498;52.516;13.790;2023-04-06T13:47:40;101516.22;;;13.86;33.62
17781;BME280;8498;52.516;13.790;2023-04-06T13:53:03;101512.00;;;13.30;35.61
17781;BME280;8498;52.516;13.790;2023-04-06T13:58:25;101516.88;;;13.50;33.76
17781;BME280;8498;52.516;13.790;2023-04-06T14:03:48;101506.94;;;14.17;33.36
17781;BME280;8498;52.516;13.790;2023-04-06T14:09:11;101503.44;;;15.15;30.15
17781;BME280;8498;52.516;13.790;2023-04-06T14:14:33;101499.13;;;13.88;31.10
17781;BME280;8498;52.516;13.790;2023-04-06T14:19:55;101502.56;;;13.90;32.73
17781;BME280;8498;52.516;13.790;2023-04-06T14:25:18;101498.88;;;14.67;31.98
17781;BME280;8498;52.516;13.790;2023-04-06T14:30:40;101488.84;;;14.95;32.36
17781;BME280;8498;52.516;13.790;2023-04-06T14:36:03;101480.66;;;15.09;32.36
17781;BME280;8498;52.516;13.790;2023-04-06T14:41:27;101486.91;;;15.21;32.42
17781;BME280;8498;52.516;13.790;2023-04-06T14:46:49;101482.13;;;15.13;33.27
17781;BME280;8498;52.516;13.790;2023-04-06T14:52:12;101480.69;;;14.96;32.76
17781;BME280;8498;52.516;13.790;2023-04-06T14:57:35;101492.03;;;15.00;33.10
17781;BME280;8498;52.516;13.790;2023-04-06T15:02:57;101488.47;;;14.76;32.66
17781;BME280;8498;52.516;13.790;2023-04-06T15:08:20;101479.38;;;14.42;32.87
17781;BME280;8498;52.516;13.790;2023-04-06T15:13:43;101479.34;;;14.29;33.14
17781;BME280;8498;52.516;13.790;2023-04-06T15:19:05;101478.94;;;13.84;32.88
17781;BME280;8498;52.516;13.790;2023-04-06T15:24:28;101481.19;;;13.90;34.03
17781;BME280;8498;52.516;13.790;2023-04-06T15:29:50;101475.69;;;13.54;33.95
17781;BME280;8498;52.516;13.790;2023-04-06T15:35:13;101474.81;;;13.53;33.97
17781;BME280;8498;52.516;13.790;2023-04-06T15:40:46;101479.22;;;13.15;34.48
17781;BME280;8498;52.516;13.790;2023-04-06T15:46:11;101480.53;;;12.81;33.78
17781;BME280;8498;52.516;13.790;2023-04-06T15:51:35;101478.88;;;12.66;35.13
17781;BME280;8498;52.516;13.790;2023-04-06T15:56:57;101468.13;;;12.39;34.75
17781;BME280;8498;52.516;13.790;2023-04-06T16:02:19;101468.63;;;12.31;36.07
17781;BME280;8498;52.516;13.790;2023-04-06T16:07:44;101471.88;;;12.22;35.54
17781;BME280;8498;52.516;13.790;2023-04-06T16:13:07;101475.84;;;12.15;35.58
17781;BME280;8498;52.516;13.790;2023-04-06T16:18:30;101483.44;;;12.07;37.02
17781;BME280;8498;52.516;13.790;2023-04-06T16:23:56;101482.09;;;11.86;37.20
17781;BME280;8498;52.516;13.790;2023-04-06T16:29:20;101475.81;;;11.87;37.09
17781;BME280;8498;52.516;13.790;2023-04-06T16:34:43;101487.19;;;11.74;37.30
17781;BME280;8498;52.516;13.790;2023-04-06T16:40:08;101479.09;;;11.62;37.14
17781;BME280;8498;52.516;13.790;2023-04-06T16:45:31;101490.16;;;11.40;37.72
17781;BME280;8498;52.516;13.790;2023-04-06T16:50:53;101481.34;;;11.24;38.32
17781;BME280;8498;52.516;13.790;2023-04-06T16:56:16;101488.75;;;11.19;38.94
17781;BME280;8498;52.516;13.790;2023-04-06T17:01:38;101480.28;;;10.96;39.83
17781;BME280;8498;52.516;13.790;2023-04-06T17:07:01;101480.03;;;10.85;40.36
17781;BME280;8498;52.516;13.790;2023-04-06T17:12:23;101484.66;;;10.66;40.92
17781;BME280;8498;52.516;13.790;2023-04-06T17:17:45;101489.09;;;10.50;40.96
17781;BME280;8498;52.516;13.790;2023-04-06T17:23:10;101489.66;;;10.39;41.32
17781;BME280;8498;52.516;13.790;2023-04-06T17:28:32;101486.31;;;10.20;41.84
17781;BME280;8498;52.516;13.790;2023-04-06T17:33:55;101499.75;;;10.00;42.91
17781;BME280;8498;52.516;13.790;2023-04-06T17:39:17;101507.66;;;9.84;43.33
17781;BME280;8498;52.516;13.790;2023-04-06T17:44:39;101503.28;;;9.66;44.30
17781;BME280;8498;52.516;13.790;2023-04-06T17:50:02;101506.88;;;9.47;44.53
17781;BME280;8498;52.516;13.790;2023-04-06T17:55:24;101513.25;;;9.26;45.43
17781;BME280;8498;52.516;13.790;2023-04-06T18:00:47;101509.00;;;9.05;46.94
17781;BME280;8498;52.516;13.790;2023-04-06T18:06:14;101507.53;;;8.80;47.82
17781;BME280;8498;52.516;13.790;2023-04-06T18:11:36;101517.84;;;8.49;49.23
17781;BME280;8498;52.516;13.790;2023-04-06T18:16:59;101522.25;;;8.30;49.35
17781;BME280;8498;52.516;13.790;2023-04-06T18:22:21;101522.28;;;8.09;50.35
17781;BME280;8498;52.516;13.790;2023-04-06T18:27:44;101536.50;;;7.87;51.83
17781;BME280;8498;52.516;13.790;2023-04-06T18:33:07;101538.13;;;7.69;52.77
17781;BME280;8498;52.516;13.790;2023-04-06T18:38:29;101534.31;;;7.56;53.00
17781;BME280;8498;52.516;13.790;2023-04-06T18:43:51;101537.34;;;7.47;53.21
17781;BME280;8498;52.516;13.790;2023-04-06T18:49:14;101541.47;;;7.32;54.07
17781;BME280;8498;52.516;13.790;2023-04-06T18:54:37;101531.75;;;7.11;54.83
17781;BME280;8498;52.516;13.790;2023-04-06T18:59:59;101544.84;;;6.92;56.30
17781;BME280;8498;52.516;13.790;2023-04-06T19:05:23;101548.88;;;6.79;57.15
17781;BME280;8498;52.516;13.790;2023-04-06T19:10:45;101549.47;;;6.63;57.62
17781;BME280;8498;52.516;13.790;2023-04-06T19:16:09;101545.50;;;6.52;58.58
17781;BME280;8498;52.516;13.790;2023-04-06T19:21:32;101551.44;;;6.34;59.34
17781;BME280;8498;52.516;13.790;2023-04-06T19:26:54;101544.88;;;6.22;59.80
17781;BME280;8498;52.516;13.790;2023-04-06T19:32:18;101543.31;;;6.16;59.39
17781;BME280;8498;52.516;13.790;2023-04-06T19:37:41;101549.13;;;6.01;60.27
17781;BME280;8498;52.516;13.790;2023-04-06T19:43:04;101546.94;;;5.87;60.89
17781;BME280;8498;52.516;13.790;2023-04-06T19:48:26;101542.94;;;5.76;60.74
17781;BME280;8498;52.516;13.790;2023-04-06T19:53:49;101538.97;;;5.64;61.59
17781;BME280;8498;52.516;13.790;2023-04-06T19:59:11;101544.59;;;5.53;62.14
17781;BME280;8498;52.516;13.790;2023-04-06T20:04:34;101543.22;;;5.42;61.78
17781;BME280;8498;52.516;13.790;2023-04-06T20:09:56;101539.13;;;5.33;62.62
17781;BME280;8498;52.516;13.790;2023-04-06T20:15:19;101546.41;;;5.25;63.32
17781;BME280;8498;52.516;13.790;2023-04-06T20:20:41;101552.28;;;5.07;64.80
17781;BME280;8498;52.516;13.790;2023-04-06T20:26:07;101545.38;;;5.03;64.67
17781;BME280;8498;52.516;13.790;2023-04-06T20:31:31;101551.97;;;4.88;65.54
17781;BME280;8498;52.516;13.790;2023-04-06T20:36:54;101548.91;;;4.74;66.27
17781;BME280;8498;52.516;13.790;2023-04-06T20:42:17;101534.31;;;4.64;66.38
17781;BME280;8498;52.516;13.790;2023-04-06T20:47:40;101537.00;;;4.61;66.54
17781;BME280;8498;52.516;13.790;2023-04-06T20:53:02;101539.03;;;4.53;66.83
17781;BME280;8498;52.516;13.790;2023-04-06T20:58:25;101544.63;;;4.40;67.60
17781;BME280;8498;52.516;13.790;2023-04-06T21:03:48;101543.97;;;4.34;68.26
17781;BME280;8498;52.516;13.790;2023-04-06T21:09:10;101540.47;;;4.33;68.46
17781;BME280;8498;52.516;13.790;2023-04-06T21:14:33;101543.44;;;4.21;69.10
17781;BME280;8498;52.516;13.790;2023-04-06T21:19:55;101539.16;;;4.17;69.55
17781;BME280;8498;52.516;13.790;2023-04-06T21:25:18;101534.97;;;4.10;69.31
17781;BME280;8498;52.516;13.790;2023-04-06T21:30:40;101537.13;;;3.96;69.94
17781;BME280;8498;52.516;13.790;2023-04-06T21:36:07;101540.03;;;3.85;70.67
17781;BME280;8498;52.516;13.790;2023-04-06T21:41:30;101530.38;;;3.86;70.26
17781;BME280;8498;52.516;13.790;2023-04-06T21:46:53;101540.25;;;3.78;70.46
17781;BME280;8498;52.516;13.790;2023-04-06T21:52:15;101539.53;;;3.73;70.73
17781;BME280;8498;52.516;13.790;2023-04-06T21:57:37;101534.47;;;3.63;71.32
17781;BME280;8498;52.516;13.790;2023-04-06T22:02:59;101533.00;;;3.53;71.57
17781;BME280;8498;52.516;13.790;2023-04-06T22:08:22;101526.19;;;3.46;72.33
17781;BME280;8498;52.516;13.790;2023-04-06T22:13:55;101528.97;;;3.40;72.92
17781;BME280;8498;52.516;13.790;2023-04-06T22:19:17;101526.56;;;3.31;73.38
17781;BME280;8498;52.516;13.790;2023-04-06T22:24:40;101517.97;;;3.24;73.94
17781;BME280;8498;52.516;13.790;2023-04-06T22:30:03;101519.81;;;3.21;73.38
17781;BME280;8498;52.516;13.790;2023-04-06T22:35:26;101517.34;;;3.13;73.36
17781;BME280;8498;52.516;13.790;2023-04-06T22:40:48;101514.19;;;3.01;74.19
17781;BME280;8498;52.516;13.790;2023-04-06T22:46:10;101505.56;;;2.94;74.21
17781;BME280;8498;52.516;13.790;2023-04-06T22:51:32;101515.38;;;2.87;74.61
17781;BME280;8498;52.516;13.790;2023-04-06T22:56:55;101512.13;;;2.76;74.93
17781;BME280;8498;52.516;13.790;2023-04-06T23:02:17;101515.50;;;2.81;74.85
17781;BME280;8498;52.516;13.790;2023-04-06T23:07:40;101504.00;;;2.87;73.69
17781;BME280;8498;52.516;13.790;2023-04-06T23:13:02;101507.00;;;2.70;74.47
17781;BME280;8498;52.516;13.790;2023-04-06T23:18:25;101507.16;;;2.64;74.83
17781;BME280;8498;52.516;13.790;2023-04-06T23:23:47;101508.00;;;2.65;74.83
17781;BME280;8498;52.516;13.790;2023-04-06T23:29:10;101505.63;;;2.54;74.79
17781;BME280;8498;52.516;13.790;2023-04-06T23:34:32;101504.75;;;2.53;74.50
17781;BME280;8498;52.516;13.790;2023-04-06T23:39:55;101504.09;;;2.44;75.21
17781;BME280;8498;52.516;13.790;2023-04-06T23:45:17;101506.22;;;2.27;76.98
17781;BME280;8498;52.516;13.790;2023-04-06T23:50:39;101501.91;;;2.24;77.41
17781;BME280;8498;52.516;13.790;2023-04-06T23:56:02;101506.34;;;2.19;77.60
